Timeline UpdatesTrip UpdatesNews PostsPvt PostsTravel TipsAdmin PostsConv PostsFollowed PostsChat RequestsBlog PostsPNR Posts

Disclaimer
Search
 
 
Tue Sep 23, 2014 09:51:42 ISTHomeTrainsΣChainsAtlasPNRForumGalleryNewsFAQTripsMembersLoginFeedback
No Recent News for this Train
Other Trains in the News **new
Latest...
Rail Budget 2011-12 The run of the following trains will be extended Hubli- Bijapur Passenger to Solapur (56906/56905)
Tue Mar 01, 2011 (08:28PM)
⇐ Return Journey: Train# 56906

56905/Solapur-Hubli Passenger (UnReserved)

Time-Table HAS CHANGED.
Sep 07 (8:24PM)
Change Departure Station:
Change Arrival Station:
Post a Train Travel TipPost a Train Travel Tip **new
Post a Comment/Question/Picture/VideoPost a Comment/Question/Picture/Video
Pantry/Catering
✕ NO Pantry Car
✕ NO Catering
Loco/Rake Reversals
GDG/Gadag Junction (3);
RSA - Rake Sharing
56903/04 solapur dharwar pass
Rake/Coach Composition
UR-7,SLR-2.
Loco
GTL WDM 2A/3A
News    PNR    Forum    Time-Table    Availability    Fare Chart    Map    Arr/Dep History    Trips    Gallery    ΣChains    X/O    Timeline    
Travel Time: 9h 15m    40 halts    Distance: 359 km    Avg Speed: 38 km/hr
Type: Passenger
Zone: SWR/South Western
Departs @ 04:45 (Avg on time)
Platform# ???
SMTWTFS
Solapur/SUR 
Arrives @ 14:00 (Avg 4m late)
Platform# ???
SMTWTFS
Hubli Junction/UBL 

40 halts. 51 intermediate Stations between Solapur and Hubli Junction

Hide intermediate Stations  Show Old Time-Table

#CodeStation NameX/OArrivesAvgDepartsAvgHaltPFDay#KmSpeedElevZoneAddress
1SURSolapur (5)»  -04:45+0--10.038461mCRSolapur 413001, Maharashtra
2TKWDTikekarwadi (2)  04:56-104:57+01m--16.960477mCRSolapur, Maharashtra
3HGHotgi Junction (3)  05:05+105:07+12m1114.971473mCRHotgi 413215, Maharashtra
3.1AHDAherwadi  05:13-05:13-  122.1 71469mSWRSholapur, Karnataka
3.2SLGESulerjavalge (1)  05:18-05:18-  127.7 71453mSWRDist. Solapur, Maharashtra
4TVLTadwal (1)  05:24+1405:25+141m1135.147455mSWRMundhewadi, Maharashtra
4.1PDNRPadnur  05:35-05:35-  143.2 47428mSWRShegao to Alagi Rd, Karnataka
5LHNLachyan (1)  05:42+1205:43+121m1148.478455mSWRBijapur, Karnataka
6IDRIndi Road (2)  05:51+1405:52+151m--158.875490mSWRDist. Bijapur, Karnataka
6.1CHRGChorgi  05:58-05:58-  165.9 75492mSWRBijapur, Karnataka
7NBLNimbal (1)  06:03+1206:05+122m1172.569522mSWRBijapur, Karnataka
7.1KTKKyataneakeri Road  06:13-06:13-  181.4 69570mSWRBijapur, Karnataka
8MNLMinchnal (1)X  06:21+2106:22+231m1191.034516mSWRBijapur, Karnataka
8.1AYBAliyabad  06:45-06:45-  1103.7 34564mSWRBijapur, Karnataka
9BJPBijapur (3)  06:55+607:00+75m21109.525597mSWRBijapur, Karnataka
10IMRIbrahimpur  07:07 07:10-07:08 07:11-1m--1113.668629mSWRBijapur, Karnataka
11HOHHonaganahalli  07:24-07:25-1m--1128.433590mSWRNational Highway 218, Karnataka
11.1JMLJumnal (1)  07:29-07:29-  1130.6 33589mSWRGulbarga-Bijapur-Hubli Hwy, Karnataka
12MVDMulvad (1)  07:37+907:38+91m11135.157627mSWRBijapur, Karnataka
13KGIHKalgurki Halt  07:46-07:47-1m--1142.745653mSWRKalgurkiH, Karnataka
14KDGIKudgi  07:54-07:55-1m--1147.940608mSWRNH 13, Karnataka
15BSRXBagevadi Road (2)  08:04+1208:05+121m--1153.956578mSWRBagevadi, Karnataka
16ANGRAngadgeri Halt  08:09-08:10-1m--1157.638583mSWRAngadgeri, Karnataka
17WDLWandal (1)X  08:17+908:18+111m11162.048557mSWRDam Inspection Rd, Karnataka
18BENLBenl  08:24-08:25-1m--1166.820535mSWRDam Inspection Rd, Karnataka
19LMTAlmatti (2)  08:33 08:39+1208:35 08:40+132 1m--1171.640535mSWRBijapur, Karnataka
20KSARKudala Sangam Road  08:41 08:47-08:42 08:48-1m--1176.242508mSWRNH 13, Karnataka
21SIISitimani  08:47 08:55-08:48 08:56-1m--1181.225536mSWRDam Inspection Rd, Karnataka
22JRKTJadrama Kunti (1)  08:54 09:09+308:55 09:10+31m11186.648536mSWRNational Highway 13, Karnataka
23KLMKadlimatti  09:04 09:19-09:05 09:20-1m--1193.863574mSWRState Highway 20, Karnataka
24MGLMugalolli H (1)  09:14 09:24+709:15 09:25+71m11198.0131527mSWRMugalolli, Karnataka
25BGKBagalkot (3)  09:28 09:29+1809:30+192 1m--1206.840541mSWRBagalkot, Karnataka
26GEDGuledagudda Road (2)X  09:49+1609:50+171m--1219.643565mSWRSH 44, Karnataka
27BDMBadami (2)  10:04 10:09+910:05 10:10+91m--1233.2100573mSWRBagalkot, Karnataka
28YGAYerra Goppa Halt  10:14-10:15-1m--1239.946573mSWRYerra Goppa, Karnataka
29LKYLakhmapur (1)  10:21+1910:22+191m11244.543578mSWRMuttalageri, Karnataka
30JAKJakanur  10:29-10:30-1m--1249.541546mSWRBadami Rd, Karnataka
31HLARHole Alur (2)  10:34+1010:35+121m--1252.344543mSWRBadami Rd, Karnataka
32SMKTSomankatti  10:44-10:45-1m--1258.846574mSWRState Highway 30, Karnataka
33MLPMallapur (1)  11:04 10:59+2311:05 11:00+241m11269.639596mSWRState Highway 30, Karnataka
34BLRBalganur (1)  11:14+2211:15+231m11278.761610mSWRGadag, Karnataka
35HBLHombal (1)  11:24+2711:25+281m11287.922631mSWRBelavaniki, Karnataka
36GDGGadag Junction (3)12:00+1912:05+255m--1300.725655mSWRGadag GDG jn pnts. UBL/BAY/SUR, Karnataka
36.1BKITBinkadakatti (2)  12:19-12:19-  1306.5 25651mSWRBinkadkatti, Karnataka
37LKTHulkoti  12:33 12:34+812:35+112 1m--1313.071654mSWRNational Highway 63, Karnataka
37.1KNKPKondikoppa  12:40-12:40-  1319.3 71622mSWRAnnigeri Rural, Karnataka
38NGRAnnigeri (2)X  12:37 12:44+1512:38 12:45+201m--1323.638634mSWRDist. Dharwad, Karnataka
38.1NVDNavalgund Road (1)  12:58-12:58-  1331.8 38608mSWRState Highway 28, Karnataka
39SVHESisvinhalli  13:04-13:05-1m--1335.741594mSWRState Highway 28, Karnataka
40HBSHebsur (3)XO  13:11+1713:12+171m--1339.876592mSWRrailway station road, Karnataka
41KUGKusugal (2)O  13:19+1913:20+191m--1348.615637mSWRUnnamed Road, Karnataka
41.1HBQHubli East Cabin  13:57-13:57-  1357.7 15636mSWRHubli, Karnataka
42UBLHubli Junction (5)•  14:00+4---1358.5-640mSWRHubli - 580020, Karnataka
Scroll to Top
Scroll to Bottom